sensor_id;sensor_type;location;lat;lon;timestamp;temperature;humidity
6054;DHT22;3055;50.886;14.814;2022-10-16T00:00:47;15.70;99.90
6054;DHT22;3055;50.886;14.814;2022-10-16T00:03:14;15.60;99.90
6054;DHT22;3055;50.886;14.814;2022-10-16T00:05:43;15.70;99.90
6054;DHT22;3055;50.886;14.814;2022-10-16T00:08:11;15.80;99.90
6054;DHT22;3055;50.886;14.814;2022-10-16T00:10:38;15.70;99.90
6054;DHT22;3055;50.886;14.814;2022-10-16T00:13:06;15.60;99.90
6054;DHT22;3055;50.886;14.814;2022-10-16T00:15:35;15.60;99.90
6054;DHT22;3055;50.886;14.814;2022-10-16T00:18:03;15.50;99.90
6054;DHT22;3055;50.886;14.814;2022-10-16T00:20:33;15.50;99.90
6054;DHT22;3055;50.886;14.814;2022-10-16T00:23:00;15.60;99.90
6054;DHT22;3055;50.886;14.814;2022-10-16T00:25:27;15.70;99.90
6054;DHT22;3055;50.886;14.814;2022-10-16T00:27:54;15.70;99.90
6054;DHT22;3055;50.886;14.814;2022-10-16T00:30:21;15.80;99.90
6054;DHT22;3055;50.886;14.814;2022-10-16T00:32:50;15.80;99.90
6054;DHT22;3055;50.886;14.814;2022-10-16T00:35:17;15.80;99.90
6054;DHT22;3055;50.886;14.814;2022-10-16T00:37:43;15.80;99.90
6054;DHT22;3055;50.886;14.814;2022-10-16T00:40:11;15.80;99.90
6054;DHT22;3055;50.886;14.814;2022-10-16T00:42:38;15.80;99.90
6054;DHT22;3055;50.886;14.814;2022-10-16T00:45:06;15.80;99.90
6054;DHT22;3055;50.886;14.814;2022-10-16T00:47:36;15.80;99.90
6054;DHT22;3055;50.886;14.814;2022-10-16T00:50:09;15.70;99.90
6054;DHT22;3055;50.886;14.814;2022-10-16T00:52:37;15.70;99.90
6054;DHT22;3055;50.886;14.814;2022-10-16T00:55:06;15.80;99.90
6054;DHT22;3055;50.886;14.814;2022-10-16T00:57:36;15.80;99.90
6054;DHT22;3055;50.886;14.814;2022-10-16T01:00:05;15.70;99.90
6054;DHT22;3055;50.886;14.814;2022-10-16T01:02:34;15.70;99.90
6054;DHT22;3055;50.886;14.814;2022-10-16T01:05:02;15.70;99.90
6054;DHT22;3055;50.886;14.814;2022-10-16T01:07:38;15.60;99.90
6054;DHT22;3055;50.886;14.814;2022-10-16T01:10:15;15.60;99.90
6054;DHT22;3055;50.886;14.814;2022-10-16T01:12:47;15.50;99.90
6054;DHT22;3055;50.886;14.814;2022-10-16T01:15:21;15.40;99.90
6054;DHT22;3055;50.886;14.814;2022-10-16T01:17:58;15.30;99.90
6054;DHT22;3055;50.886;14.814;2022-10-16T01:20:30;15.40;99.90
6054;DHT22;3055;50.886;14.814;2022-10-16T01:23:07;15.40;99.90
6054;DHT22;3055;50.886;14.814;2022-10-16T01:26:10;15.40;99.90
6054;DHT22;3055;50.886;14.814;2022-10-16T01:28:44;15.40;99.90
6054;DHT22;3055;50.886;14.814;2022-10-16T01:31:16;15.50;99.90
6054;DHT22;3055;50.886;14.814;2022-10-16T01:33:47;15.50;99.90
6054;DHT22;3055;50.886;14.814;2022-10-16T01:36:16;15.50;99.90
6054;DHT22;3055;50.886;14.814;2022-10-16T01:38:47;15.50;99.90
6054;DHT22;3055;50.886;14.814;2022-10-16T01:41:19;15.50;99.90
6054;DHT22;3055;50.886;14.814;2022-10-16T01:43:56;15.50;99.90
6054;DHT22;3055;50.886;14.814;2022-10-16T01:46:26;15.50;99.90
6054;DHT22;3055;50.886;14.814;2022-10-16T01:48:55;15.40;99.90
6054;DHT22;3055;50.886;14.814;2022-10-16T01:51:23;15.30;99.90
6054;DHT22;3055;50.886;14.814;2022-10-16T01:53:53;15.30;99.90
6054;DHT22;3055;50.886;14.814;2022-10-16T01:56:21;15.20;99.90
6054;DHT22;3055;50.886;14.814;2022-10-16T01:58:53;15.20;99.90
6054;DHT22;3055;50.886;14.814;2022-10-16T02:01:23;15.10;99.90
6054;DHT22;3055;50.886;14.814;2022-10-16T02:03:54;15.10;99.90
6054;DHT22;3055;50.886;14.814;2022-10-16T02:06:23;15.10;99.90
6054;DHT22;3055;50.886;14.814;2022-10-16T02:08:50;15.10;99.90
6054;DHT22;3055;50.886;14.814;2022-10-16T02:11:17;15.10;99.90
6054;DHT22;3055;50.886;14.814;2022-10-16T02:13:46;15.00;99.90
6054;DHT22;3055;50.886;14.814;2022-10-16T02:16:16;15.00;99.90
6054;DHT22;3055;50.886;14.814;2022-10-16T02:18:43;15.00;99.90
6054;DHT22;3055;50.886;14.814;2022-10-16T02:21:16;15.00;99.90
6054;DHT22;3055;50.886;14.814;2022-10-16T02:23:49;15.00;99.90
6054;DHT22;3055;50.886;14.814;2022-10-16T02:26:25;15.00;99.90
6054;DHT22;3055;50.886;14.814;2022-10-16T02:28:58;15.00;99.90
6054;DHT22;3055;50.886;14.814;2022-10-16T02:31:31;15.00;99.90
6054;DHT22;3055;50.886;14.814;2022-10-16T02:34:00;14.90;99.90
6054;DHT22;3055;50.886;14.814;2022-10-16T02:36:31;14.90;99.90
6054;DHT22;3055;50.886;14.814;2022-10-16T02:38:59;14.90;99.90
6054;DHT22;3055;50.886;14.814;2022-10-16T02:41:27;15.00;99.90
6054;DHT22;3055;50.886;14.814;2022-10-16T02:43:54;15.00;99.90
6054;DHT22;3055;50.886;14.814;2022-10-16T02:46:21;15.00;99.90
6054;DHT22;3055;50.886;14.814;2022-10-16T02:48:50;15.00;99.90
6054;DHT22;3055;50.886;14.814;2022-10-16T02:51:16;15.10;99.90
6054;DHT22;3055;50.886;14.814;2022-10-16T02:53:44;15.10;99.90
6054;DHT22;3055;50.886;14.814;2022-10-16T02:56:11;15.20;99.90
6054;DHT22;3055;50.886;14.814;2022-10-16T02:58:38;15.20;99.90
6054;DHT22;3055;50.886;14.814;2022-10-16T03:01:05;15.20;99.90
6054;DHT22;3055;50.886;14.814;2022-10-16T03:03:31;15.20;99.90
6054;DHT22;3055;50.886;14.814;2022-10-16T03:06:00;15.20;99.90
6054;DHT22;3055;50.886;14.814;2022-10-16T03:08:27;15.20;99.90
6054;DHT22;3055;50.886;14.814;2022-10-16T03:10:54;15.30;99.90
6054;DHT22;3055;50.886;14.814;2022-10-16T03:13:21;15.30;99.90
6054;DHT22;3055;50.886;14.814;2022-10-16T03:15:48;15.30;99.90
6054;DHT22;3055;50.886;14.814;2022-10-16T03:18:15;15.40;99.90
6054;DHT22;3055;50.886;14.814;2022-10-16T03:20:42;15.40;99.90
6054;DHT22;3055;50.886;14.814;2022-10-16T03:23:11;15.40;99.90
6054;DHT22;3055;50.886;14.814;2022-10-16T03:25:38;15.40;99.90
6054;DHT22;3055;50.886;14.814;2022-10-16T03:28:05;15.40;99.90
6054;DHT22;3055;50.886;14.814;2022-10-16T03:30:32;15.50;99.90
6054;DHT22;3055;50.886;14.814;2022-10-16T03:32:59;15.40;99.90
6054;DHT22;3055;50.886;14.814;2022-10-16T03:35:26;15.40;99.90
6054;DHT22;3055;50.886;14.814;2022-10-16T03:37:52;15.40;99.90
6054;DHT22;3055;50.886;14.814;2022-10-16T03:40:21;15.40;99.90
6054;DHT22;3055;50.886;14.814;2022-10-16T03:42:48;15.50;99.90
6054;DHT22;3055;50.886;14.814;2022-10-16T03:45:15;15.50;99.90
6054;DHT22;3055;50.886;14.814;2022-10-16T03:47:42;15.50;99.90
6054;DHT22;3055;50.886;14.814;2022-10-16T03:50:09;15.50;99.90
6054;DHT22;3055;50.886;14.814;2022-10-16T03:52:35;15.60;99.90
6054;DHT22;3055;50.886;14.814;2022-10-16T03:55:03;15.60;99.90
6054;DHT22;3055;50.886;14.814;2022-10-16T03:57:31;15.60;99.90
6054;DHT22;3055;50.886;14.814;2022-10-16T03:59:58;15.60;99.90
6054;DHT22;3055;50.886;14.814;2022-10-16T04:02:25;15.60;99.90
6054;DHT22;3055;50.886;14.814;2022-10-16T04:04:52;15.60;99.90
6054;DHT22;3055;50.886;14.814;2022-10-16T04:07:19;15.60;99.90
6054;DHT22;3055;50.886;14.814;2022-10-16T04:09:46;15.50;99.90
6054;DHT22;3055;50.886;14.814;2022-10-16T04:12:13;15.60;99.90
6054;DHT22;3055;50.886;14.814;2022-10-16T04:14:41;15.50;99.90
6054;DHT22;3055;50.886;14.814;2022-10-16T04:17:08;15.50;99.90
6054;DHT22;3055;50.886;14.814;2022-10-16T04:19:35;15.60;99.90
6054;DHT22;3055;50.886;14.814;2022-10-16T04:22:02;15.60;99.90
6054;DHT22;3055;50.886;14.814;2022-10-16T04:24:29;15.50;99.90
6054;DHT22;3055;50.886;14.814;2022-10-16T04:26:56;15.50;99.90
6054;DHT22;3055;50.886;14.814;2022-10-16T04:29:22;15.60;99.90
6054;DHT22;3055;50.886;14.814;2022-10-16T04:31:51;15.60;99.90
6054;DHT22;3055;50.886;14.814;2022-10-16T04:34:18;15.60;99.90
6054;DHT22;3055;50.886;14.814;2022-10-16T04:36:47;15.60;99.90
6054;DHT22;3055;50.886;14.814;2022-10-16T04:39:14;15.60;99.90
6054;DHT22;3055;50.886;14.814;2022-10-16T04:41:42;15.60;99.90
6054;DHT22;3055;50.886;14.814;2022-10-16T04:44:09;15.60;99.90
6054;DHT22;3055;50.886;14.814;2022-10-16T04:46:35;15.60;99.90
6054;DHT22;3055;50.886;14.814;2022-10-16T04:49:04;15.60;99.90
6054;DHT22;3055;50.886;14.814;2022-10-16T04:51:31;15.60;99.90
6054;DHT22;3055;50.886;14.814;2022-10-16T04:53:58;15.60;99.90
6054;DHT22;3055;50.886;14.814;2022-10-16T04:56:25;15.60;99.90
6054;DHT22;3055;50.886;14.814;2022-10-16T04:58:52;15.60;99.90
6054;DHT22;3055;50.886;14.814;2022-10-16T05:01:19;15.60;99.90
6054;DHT22;3055;50.886;14.814;2022-10-16T05:03:46;15.60;99.90
6054;DHT22;3055;50.886;14.814;2022-10-16T05:06:14;15.50;99.90
6054;DHT22;3055;50.886;14.814;2022-10-16T05:08:41;15.50;99.90
6054;DHT22;3055;50.886;14.814;2022-10-16T05:11:08;15.40;99.90
6054;DHT22;3055;50.886;14.814;2022-10-16T05:13:35;15.40;99.90
6054;DHT22;3055;50.886;14.814;2022-10-16T05:16:02;15.40;99.90
6054;DHT22;3055;50.886;14.814;2022-10-16T05:18:29;15.40;99.90
6054;DHT22;3055;50.886;14.814;2022-10-16T05:20:56;15.30;99.90
6054;DHT22;3055;50.886;14.814;2022-10-16T05:23:24;15.20;99.90
6054;DHT22;3055;50.886;14.814;2022-10-16T05:25:54;15.20;99.90
6054;DHT22;3055;50.886;14.814;2022-10-16T05:28:24;15.10;99.90
6054;DHT22;3055;50.886;14.814;2022-10-16T05:30:51;15.10;99.90
6054;DHT22;3055;50.886;14.814;2022-10-16T05:33:20;15.10;99.90
6054;DHT22;3055;50.886;14.814;2022-10-16T05:35:47;15.00;99.90
6054;DHT22;3055;50.886;14.814;2022-10-16T05:38:15;15.00;99.90
6054;DHT22;3055;50.886;14.814;2022-10-16T05:40:50;15.00;99.90
6054;DHT22;3055;50.886;14.814;2022-10-16T05:43:17;15.10;99.90
6054;DHT22;3055;50.886;14.814;2022-10-16T05:45:44;15.20;99.90
6054;DHT22;3055;50.886;14.814;2022-10-16T05:48:19;15.10;99.90
6054;DHT22;3055;50.886;14.814;2022-10-16T05:50:46;15.20;99.90
6054;DHT22;3055;50.886;14.814;2022-10-16T05:53:13;15.20;99.90
6054;DHT22;3055;50.886;14.814;2022-10-16T05:55:40;15.20;99.90
6054;DHT22;3055;50.886;14.814;2022-10-16T05:58:08;15.20;99.90
6054;DHT22;3055;50.886;14.814;2022-10-16T06:00:35;15.20;99.90
6054;DHT22;3055;50.886;14.814;2022-10-16T06:03:02;15.20;99.90
6054;DHT22;3055;50.886;14.814;2022-10-16T06:05:30;15.30;99.90
6054;DHT22;3055;50.886;14.814;2022-10-16T06:07:57;15.40;99.90
6054;DHT22;3055;50.886;14.814;2022-10-16T06:10:24;15.40;99.90
6054;DHT22;3055;50.886;14.814;2022-10-16T06:12:51;15.50;99.90
6054;DHT22;3055;50.886;14.814;2022-10-16T06:15:19;15.60;99.90
6054;DHT22;3055;50.886;14.814;2022-10-16T06:17:46;15.70;99.90
6054;DHT22;3055;50.886;14.814;2022-10-16T06:20:13;15.70;99.90
6054;DHT22;3055;50.886;14.814;2022-10-16T06:22:40;15.70;99.90
6054;DHT22;3055;50.886;14.814;2022-10-16T06:25:07;15.80;99.90
6054;DHT22;3055;50.886;14.814;2022-10-16T06:27:34;15.80;99.90
6054;DHT22;3055;50.886;14.814;2022-10-16T06:30:01;15.80;99.90
6054;DHT22;3055;50.886;14.814;2022-10-16T06:32:30;15.80;99.90
6054;DHT22;3055;50.886;14.814;2022-10-16T06:34:57;15.80;99.90
6054;DHT22;3055;50.886;14.814;2022-10-16T06:37:24;15.90;99.90
6054;DHT22;3055;50.886;14.814;2022-10-16T06:39:51;16.00;99.90
6054;DHT22;3055;50.886;14.814;2022-10-16T06:42:18;16.00;99.90
6054;DHT22;3055;50.886;14.814;2022-10-16T06:44:45;16.10;99.90
6054;DHT22;3055;50.886;14.814;2022-10-16T06:47:12;16.10;99.90
6054;DHT22;3055;50.886;14.814;2022-10-16T06:49:40;16.20;99.90
6054;DHT22;3055;50.886;14.814;2022-10-16T06:52:07;16.30;99.90
6054;DHT22;3055;50.886;14.814;2022-10-16T06:54:34;16.30;99.90
6054;DHT22;3055;50.886;14.814;2022-10-16T06:57:01;16.30;99.90
6054;DHT22;3055;50.886;14.814;2022-10-16T06:59:28;16.30;99.90
6054;DHT22;3055;50.886;14.814;2022-10-16T07:01:55;16.30;99.90
6054;DHT22;3055;50.886;14.814;2022-10-16T07:04:22;16.40;99.90
6054;DHT22;3055;50.886;14.814;2022-10-16T07:06:50;16.40;99.90
6054;DHT22;3055;50.886;14.814;2022-10-16T07:09:17;16.40;99.90
6054;DHT22;3055;50.886;14.814;2022-10-16T07:11:44;16.40;99.90
6054;DHT22;3055;50.886;14.814;2022-10-16T07:14:15;16.40;99.90
6054;DHT22;3055;50.886;14.814;2022-10-16T07:16:43;16.50;99.90
6054;DHT22;3055;50.886;14.814;2022-10-16T07:19:10;16.60;99.90
6054;DHT22;3055;50.886;14.814;2022-10-16T07:21:38;16.60;99.90
6054;DHT22;3055;50.886;14.814;2022-10-16T07:24:11;16.70;99.90
6054;DHT22;3055;50.886;14.814;2022-10-16T07:26:38;16.80;99.90
6054;DHT22;3055;50.886;14.814;2022-10-16T07:29:06;16.90;99.90
6054;DHT22;3055;50.886;14.814;2022-10-16T07:31:33;16.90;99.90
6054;DHT22;3055;50.886;14.814;2022-10-16T07:34:00;17.00;99.90
6054;DHT22;3055;50.886;14.814;2022-10-16T07:36:27;17.00;99.90
6054;DHT22;3055;50.886;14.814;2022-10-16T07:38:55;17.10;99.90
6054;DHT22;3055;50.886;14.814;2022-10-16T07:41:23;17.10;99.90
6054;DHT22;3055;50.886;14.814;2022-10-16T07:43:51;17.10;95.50
6054;DHT22;3055;50.886;14.814;2022-10-16T07:46:20;17.20;98.50
6054;DHT22;3055;50.886;14.814;2022-10-16T07:48:47;17.30;99.90
6054;DHT22;3055;50.886;14.814;2022-10-16T07:51:15;17.30;85.10
6054;DHT22;3055;50.886;14.814;2022-10-16T07:53:43;17.40;81.40
6054;DHT22;3055;50.886;14.814;2022-10-16T07:56:10;17.50;68.80
6054;DHT22;3055;50.886;14.814;2022-10-16T07:58:39;17.50;51.00
6054;DHT22;3055;50.886;14.814;2022-10-16T08:01:07;17.50;47.60
6054;DHT22;3055;50.886;14.814;2022-10-16T08:03:35;17.60;53.40
6054;DHT22;3055;50.886;14.814;2022-10-16T08:06:02;17.70;40.00
6054;DHT22;3055;50.886;14.814;2022-10-16T08:08:29;17.70;26.10
6054;DHT22;3055;50.886;14.814;2022-10-16T08:10:56;17.80;21.90
6054;DHT22;3055;50.886;14.814;2022-10-16T08:13:23;17.90;22.10
6054;DHT22;3055;50.886;14.814;2022-10-16T08:15:54;17.90;28.30
6054;DHT22;3055;50.886;14.814;2022-10-16T08:18:22;18.00;12.00
6054;DHT22;3055;50.886;14.814;2022-10-16T08:20:55;18.10;12.90
6054;DHT22;3055;50.886;14.814;2022-10-16T08:23:22;18.20;1.30
6054;DHT22;3055;50.886;14.814;2022-10-16T08:25:51;18.10;1.00
6054;DHT22;3055;50.886;14.814;2022-10-16T08:28:18;18.00;1.00
6054;DHT22;3055;50.886;14.814;2022-10-16T08:30:45;17.90;14.00
6054;DHT22;3055;50.886;14.814;2022-10-16T08:33:14;17.80;25.10
6054;DHT22;3055;50.886;14.814;2022-10-16T08:35:42;17.80;32.70
6054;DHT22;3055;50.886;14.814;2022-10-16T08:38:09;17.70;22.30
6054;DHT22;3055;50.886;14.814;2022-10-16T08:40:36;17.70;34.90
6054;DHT22;3055;50.886;14.814;2022-10-16T08:43:29;17.70;31.30
6054;DHT22;3055;50.886;14.814;2022-10-16T08:48:58;18.00;28.20
6054;DHT22;3055;50.886;14.814;2022-10-16T08:51:28;18.20;1.00
6054;DHT22;3055;50.886;14.814;2022-10-16T08:53:57;18.20;1.00
6054;DHT22;3055;50.886;14.814;2022-10-16T08:56:25;18.30;1.00
6054;DHT22;3055;50.886;14.814;2022-10-16T08:58:53;18.30;1.00
6054;DHT22;3055;50.886;14.814;2022-10-16T09:01:22;18.30;1.00
6054;DHT22;3055;50.886;14.814;2022-10-16T09:04:07;18.40;1.00
6054;DHT22;3055;50.886;14.814;2022-10-16T09:06:45;18.40;1.00
6054;DHT22;3055;50.886;14.814;2022-10-16T09:09:42;18.20;1.00
6054;DHT22;3055;50.886;14.814;2022-10-16T09:12:18;18.20;1.80
6054;DHT22;3055;50.886;14.814;2022-10-16T09:14:57;18.30;1.00
6054;DHT22;3055;50.886;14.814;2022-10-16T09:17:38;18.40;1.00
6054;DHT22;3055;50.886;14.814;2022-10-16T09:20:30;18.60;1.00
6054;DHT22;3055;50.886;14.814;2022-10-16T09:23:10;18.70;1.00
6054;DHT22;3055;50.886;14.814;2022-10-16T09:25:44;18.90;1.00
6054;DHT22;3055;50.886;14.814;2022-10-16T09:28:13;18.90;1.00
6054;DHT22;3055;50.886;14.814;2022-10-16T09:30:40;18.90;1.00
6054;DHT22;3055;50.886;14.814;2022-10-16T09:33:09;19.00;1.00
6054;DHT22;3055;50.886;14.814;2022-10-16T09:35:40;19.10;1.00
6054;DHT22;3055;50.886;14.814;2022-10-16T09:38:09;19.20;1.00
6054;DHT22;3055;50.886;14.814;2022-10-16T09:40:46;19.20;1.00
6054;DHT22;3055;50.886;14.814;2022-10-16T09:43:21;19.20;1.00
6054;DHT22;3055;50.886;14.814;2022-10-16T09:46:01;19.20;1.00
6054;DHT22;3055;50.886;14.814;2022-10-16T09:48:33;19.20;1.00
6054;DHT22;3055;50.886;14.814;2022-10-16T09:51:06;19.30;1.00
6054;DHT22;3055;50.886;14.814;2022-10-16T09:53:43;19.30;1.00
6054;DHT22;3055;50.886;14.814;2022-10-16T09:56:20;19.40;1.00
6054;DHT22;3055;50.886;14.814;2022-10-16T09:58:50;19.50;1.00
6054;DHT22;3055;50.886;14.814;2022-10-16T10:01:19;19.50;1.00
6054;DHT22;3055;50.886;14.814;2022-10-16T10:03:46;19.60;1.00
6054;DHT22;3055;50.886;14.814;2022-10-16T10:06:21;19.70;1.00
6054;DHT22;3055;50.886;14.814;2022-10-16T10:09:00;19.50;1.00
6054;DHT22;3055;50.886;14.814;2022-10-16T10:11:50;19.60;1.00
6054;DHT22;3055;50.886;14.814;2022-10-16T10:14:24;19.50;1.00
6054;DHT22;3055;50.886;14.814;2022-10-16T10:16:53;19.40;1.00
6054;DHT22;3055;50.886;14.814;2022-10-16T10:19:27;19.50;1.00
6054;DHT22;3055;50.886;14.814;2022-10-16T10:21:56;19.70;1.00
6054;DHT22;3055;50.886;14.814;2022-10-16T10:24:23;19.70;1.00
6054;DHT22;3055;50.886;14.814;2022-10-16T10:26:56;19.70;1.00
6054;DHT22;3055;50.886;14.814;2022-10-16T10:29:34;19.70;1.00
6054;DHT22;3055;50.886;14.814;2022-10-16T10:32:13;19.80;1.00
6054;DHT22;3055;50.886;14.814;2022-10-16T10:34:54;19.90;1.00
6054;DHT22;3055;50.886;14.814;2022-10-16T10:37:37;19.90;1.00
6054;DHT22;3055;50.886;14.814;2022-10-16T10:40:15;20.00;1.00
6054;DHT22;3055;50.886;14.814;2022-10-16T10:42:50;20.10;1.00
6054;DHT22;3055;50.886;14.814;2022-10-16T10:45:26;20.20;1.00
6054;DHT22;3055;50.886;14.814;2022-10-16T10:48:09;20.50;1.00
6054;DHT22;3055;50.886;14.814;2022-10-16T10:50:41;20.70;99.90
6054;DHT22;3055;50.886;14.814;2022-10-16T10:53:18;20.90;99.90
6054;DHT22;3055;50.886;14.814;2022-10-16T10:55:52;21.00;99.90
6054;DHT22;3055;50.886;14.814;2022-10-16T10:58:54;21.00;9.90
6054;DHT22;3055;50.886;14.814;2022-10-16T11:01:29;21.00;35.70
6054;DHT22;3055;50.886;14.814;2022-10-16T11:04:18;20.90;1.00
6054;DHT22;3055;50.886;14.814;2022-10-16T11:06:51;20.80;99.90
6054;DHT22;3055;50.886;14.814;2022-10-16T11:09:24;20.90;99.90
6054;DHT22;3055;50.886;14.814;2022-10-16T11:11:56;21.10;58.80
6054;DHT22;3055;50.886;14.814;2022-10-16T11:14:27;21.40;99.90
6054;DHT22;3055;50.886;14.814;2022-10-16T11:16:58;21.60;1.00
6054;DHT22;3055;50.886;14.814;2022-10-16T11:19:35;21.50;99.90
6054;DHT22;3055;50.886;14.814;2022-10-16T11:22:07;21.40;99.90
6054;DHT22;3055;50.886;14.814;2022-10-16T11:24:44;21.20;1.00
6054;DHT22;3055;50.886;14.814;2022-10-16T11:27:16;21.00;99.90
6054;DHT22;3055;50.886;14.814;2022-10-16T11:29:49;20.90;99.90
6054;DHT22;3055;50.886;14.814;2022-10-16T11:32:22;20.90;99.90
6054;DHT22;3055;50.886;14.814;2022-10-16T11:34:53;20.80;99.90
6054;DHT22;3055;50.886;14.814;2022-10-16T11:37:25;21.00;99.90
6054;DHT22;3055;50.886;14.814;2022-10-16T11:39:59;21.00;1.00
6054;DHT22;3055;50.886;14.814;2022-10-16T11:42:33;21.20;1.00
6054;DHT22;3055;50.886;14.814;2022-10-16T11:45:08;21.40;99.90
6054;DHT22;3055;50.886;14.814;2022-10-16T11:47:43;21.60;99.90
6054;DHT22;3055;50.886;14.814;2022-10-16T11:50:19;21.60;1.00
6054;DHT22;3055;50.886;14.814;2022-10-16T11:52:53;21.70;99.90
6054;DHT22;3055;50.886;14.814;2022-10-16T11:55:27;21.90;99.90
6054;DHT22;3055;50.886;14.814;2022-10-16T11:58:01;22.40;1.00
6054;DHT22;3055;50.886;14.814;2022-10-16T12:00:33;22.50;1.00
6054;DHT22;3055;50.886;14.814;2022-10-16T12:03:11;22.30;1.00
6054;DHT22;3055;50.886;14.814;2022-10-16T12:05:55;22.40;99.90
6054;DHT22;3055;50.886;14.814;2022-10-16T12:08:25;22.50;1.00
6054;DHT22;3055;50.886;14.814;2022-10-16T12:10:53;22.60;99.90
6054;DHT22;3055;50.886;14.814;2022-10-16T12:13:31;22.40;99.90
6054;DHT22;3055;50.886;14.814;2022-10-16T12:16:07;22.30;99.90
6054;DHT22;3055;50.886;14.814;2022-10-16T12:18:46;22.30;1.00
6054;DHT22;3055;50.886;14.814;2022-10-16T12:21:15;22.50;1.00
6054;DHT22;3055;50.886;14.814;2022-10-16T12:23:48;22.60;1.00
6054;DHT22;3055;50.886;14.814;2022-10-16T12:26:24;22.70;99.90
6054;DHT22;3055;50.886;14.814;2022-10-16T12:28:51;22.90;99.90
6054;DHT22;3055;50.886;14.814;2022-10-16T12:31:18;23.00;99.90
6054;DHT22;3055;50.886;14.814;2022-10-16T12:33:56;23.00;1.00
6054;DHT22;3055;50.886;14.814;2022-10-16T12:36:28;23.00;99.90
6054;DHT22;3055;50.886;14.814;2022-10-16T12:38:56;22.90;99.90
6054;DHT22;3055;50.886;14.814;2022-10-16T12:41:29;22.90;22.50
6054;DHT22;3055;50.886;14.814;2022-10-16T12:43:56;22.90;99.90
6054;DHT22;3055;50.886;14.814;2022-10-16T12:46:39;23.00;1.00
6054;DHT22;3055;50.886;14.814;2022-10-16T12:49:21;22.90;1.00
6054;DHT22;3055;50.886;14.814;2022-10-16T12:51:50;22.80;99.90
6054;DHT22;3055;50.886;14.814;2022-10-16T12:54:19;22.90;70.70
6054;DHT22;3055;50.886;14.814;2022-10-16T12:56:57;23.10;37.50
6054;DHT22;3055;50.886;14.814;2022-10-16T12:59:38;23.10;1.00
6054;DHT22;3055;50.886;14.814;2022-10-16T13:05:26;23.30;1.00
6054;DHT22;3055;50.886;14.814;2022-10-16T13:08:03;23.40;99.90
6054;DHT22;3055;50.886;14.814;2022-10-16T13:10:38;23.40;99.90
6054;DHT22;3055;50.886;14.814;2022-10-16T13:13:36;23.30;1.00
6054;DHT22;3055;50.886;14.814;2022-10-16T13:16:15;23.30;1.00
6054;DHT22;3055;50.886;14.814;2022-10-16T13:18:53;23.30;1.00
6054;DHT22;3055;50.886;14.814;2022-10-16T13:21:34;23.40;99.90
6054;DHT22;3055;50.886;14.814;2022-10-16T13:24:11;23.60;99.90
6054;DHT22;3055;50.886;14.814;2022-10-16T13:26:48;23.70;99.90
6054;DHT22;3055;50.886;14.814;2022-10-16T13:29:18;23.60;99.90
6054;DHT22;3055;50.886;14.814;2022-10-16T13:31:46;23.40;99.90
6054;DHT22;3055;50.886;14.814;2022-10-16T13:34:18;23.50;99.90
6054;DHT22;3055;50.886;14.814;2022-10-16T13:36:47;23.70;99.90
6054;DHT22;3055;50.886;14.814;2022-10-16T13:39:21;23.70;99.90
6054;DHT22;3055;50.886;14.814;2022-10-16T13:42:01;23.60;99.90
6054;DHT22;3055;50.886;14.814;2022-10-16T13:44:34;23.50;99.90
6054;DHT22;3055;50.886;14.814;2022-10-16T13:47:02;23.50;99.90
6054;DHT22;3055;50.886;14.814;2022-10-16T13:49:29;23.40;99.90
6054;DHT22;3055;50.886;14.814;2022-10-16T13:51:57;23.10;99.90
6054;DHT22;3055;50.886;14.814;2022-10-16T13:54:25;23.00;99.90
6054;DHT22;3055;50.886;14.814;2022-10-16T13:56:52;23.30;99.90
6054;DHT22;3055;50.886;14.814;2022-10-16T13:59:23;23.50;1.00
6054;DHT22;3055;50.886;14.814;2022-10-16T14:01:55;23.60;99.90
6054;DHT22;3055;50.886;14.814;2022-10-16T14:04:23;23.70;99.90
6054;DHT22;3055;50.886;14.814;2022-10-16T14:06:51;23.80;99.90
6054;DHT22;3055;50.886;14.814;2022-10-16T14:09:23;23.80;99.90
6054;DHT22;3055;50.886;14.814;2022-10-16T14:11:54;24.10;99.90
6054;DHT22;3055;50.886;14.814;2022-10-16T14:14:23;24.40;1.00
6054;DHT22;3055;50.886;14.814;2022-10-16T14:16:50;24.10;37.50
6054;DHT22;3055;50.886;14.814;2022-10-16T14:19:22;23.70;99.90
6054;DHT22;3055;50.886;14.814;2022-10-16T14:21:50;23.40;1.00
6054;DHT22;3055;50.886;14.814;2022-10-16T14:24:26;23.10;99.90
6054;DHT22;3055;50.886;14.814;2022-10-16T14:26:53;22.80;99.90
6054;DHT22;3055;50.886;14.814;2022-10-16T14:29:23;22.60;99.90
6054;DHT22;3055;50.886;14.814;2022-10-16T14:31:57;22.40;99.90
6054;DHT22;3055;50.886;14.814;2022-10-16T14:34:29;22.20;99.90
6054;DHT22;3055;50.886;14.814;2022-10-16T14:36:59;21.90;99.90
6054;DHT22;3055;50.886;14.814;2022-10-16T14:39:30;21.60;99.90
6054;DHT22;3055;50.886;14.814;2022-10-16T14:41:58;21.40;99.90
6054;DHT22;3055;50.886;14.814;2022-10-16T14:44:29;21.30;1.00
6054;DHT22;3055;50.886;14.814;2022-10-16T14:46:58;21.10;1.00
6054;DHT22;3055;50.886;14.814;2022-10-16T14:49:26;20.90;1.00
6054;DHT22;3055;50.886;14.814;2022-10-16T14:51:53;20.80;31.30
6054;DHT22;3055;50.886;14.814;2022-10-16T14:54:20;20.70;99.90
6054;DHT22;3055;50.886;14.814;2022-10-16T14:56:50;20.60;1.00
6054;DHT22;3055;50.886;14.814;2022-10-16T14:59:21;20.50;99.90
6054;DHT22;3055;50.886;14.814;2022-10-16T15:01:50;20.40;1.00
6054;DHT22;3055;50.886;14.814;2022-10-16T15:04:17;20.30;1.00
6054;DHT22;3055;50.886;14.814;2022-10-16T15:06:46;20.10;1.00
6054;DHT22;3055;50.886;14.814;2022-10-16T15:09:13;20.00;99.90
6054;DHT22;3055;50.886;14.814;2022-10-16T15:11:40;19.90;1.00
6054;DHT22;3055;50.886;14.814;2022-10-16T15:14:09;19.80;1.00
6054;DHT22;3055;50.886;14.814;2022-10-16T15:16:37;19.70;1.00
6054;DHT22;3055;50.886;14.814;2022-10-16T15:19:04;19.60;1.00
6054;DHT22;3055;50.886;14.814;2022-10-16T15:21:32;19.60;1.00
6054;DHT22;3055;50.886;14.814;2022-10-16T15:24:00;19.60;1.00
6054;DHT22;3055;50.886;14.814;2022-10-16T15:26:28;19.50;1.00
6054;DHT22;3055;50.886;14.814;2022-10-16T15:28:56;19.40;4.70
6054;DHT22;3055;50.886;14.814;2022-10-16T15:31:23;19.40;1.00
6054;DHT22;3055;50.886;14.814;2022-10-16T15:33:51;19.30;5.90
6054;DHT22;3055;50.886;14.814;2022-10-16T15:36:25;19.30;9.40
6054;DHT22;3055;50.886;14.814;2022-10-16T15:38:53;19.20;41.90
6054;DHT22;3055;50.886;14.814;2022-10-16T15:41:21;19.20;31.60
6054;DHT22;3055;50.886;14.814;2022-10-16T15:43:49;19.10;40.80
6054;DHT22;3055;50.886;14.814;2022-10-16T15:46:18;19.00;44.10
6054;DHT22;3055;50.886;14.814;2022-10-16T15:48:46;19.00;74.10
6054;DHT22;3055;50.886;14.814;2022-10-16T15:51:13;18.90;97.70
6054;DHT22;3055;50.886;14.814;2022-10-16T15:53:40;18.80;99.90
6054;DHT22;3055;50.886;14.814;2022-10-16T15:56:09;18.80;99.10
6054;DHT22;3055;50.886;14.814;2022-10-16T15:58:37;18.80;77.00
6054;DHT22;3055;50.886;14.814;2022-10-16T16:01:06;18.70;53.90
6054;DHT22;3055;50.886;14.814;2022-10-16T16:03:39;18.70;81.70
6054;DHT22;3055;50.886;14.814;2022-10-16T16:06:08;18.70;81.70
6054;DHT22;3055;50.886;14.814;2022-10-16T16:08:36;18.70;76.10
6054;DHT22;3055;50.886;14.814;2022-10-16T16:11:06;18.60;92.00
6054;DHT22;3055;50.886;14.814;2022-10-16T16:13:33;18.50;99.90
6054;DHT22;3055;50.886;14.814;2022-10-16T16:16:01;18.40;99.90